Map

Track Data

SID SEASON NUMBER BASIN SUBBASIN NAME ISO_TIME NATURE LAT LON WMO_WIND WMO_PRES WMO_AGENCY TRACK_TYPE DIST2LAND LANDFALL IFLAG USA_AGENCY USA_ATCF_ID USA_LAT USA_LON USA_RECORD USA_STATUS USA_WIND USA_PRES USA_SSHS USA_R34_NE USA_R34_SE USA_R34_SW USA_R34_NW USA_R50_NE USA_R50_SE USA_R50_SW USA_R50_NW USA_R64_NE USA_R64_SE USA_R64_SW USA_R64_NW USA_POCI USA_ROCI USA_RMW USA_EYE TOKYO_LAT TOKYO_LON TOKYO_GRADE TOKYO_WIND TOKYO_PRES TOKYO_R50_DIR TOKYO_R50_LONG TOKYO_R50_SHORT TOKYO_R30_DIR TOKYO_R30_LONG TOKYO_R30_SHORT TOKYO_LAND CMA_LAT CMA_LON CMA_CAT CMA_WIND CMA_PRES HKO_LAT HKO_LON HKO_CAT HKO_WIND HKO_PRES NEWDELHI_LAT NEWDELHI_LON NEWDELHI_GRADE NEWDELHI_WIND NEWDELHI_PRES NEWDELHI_CI NEWDELHI_DP NEWDELHI_POCI REUNION_LAT REUNION_LON REUNION_TYPE REUNION_WIND REUNION_PRES REUNION_TNUM REUNION_CI REUNION_RMW REUNION_R34_NE REUNION_R34_SE REUNION_R34_SW REUNION_R34_NW REUNION_R50_NE REUNION_R50_SE REUNION_R50_SW REUNION_R50_NW REUNION_R64_NE REUNION_R64_SE REUNION_R64_SW REUNION_R64_NW BOM_LAT BOM_LON BOM_TYPE BOM_WIND BOM_PRES BOM_TNUM BOM_CI BOM_RMW BOM_R34_NE BOM_R34_SE BOM_R34_SW BOM_R34_NW BOM_R50_NE BOM_R50_SE BOM_R50_SW BOM_R50_NW BOM_R64_NE BOM_R64_SE BOM_R64_SW BOM_R64_NW BOM_ROCI BOM_POCI BOM_EYE BOM_POS_METHOD BOM_PRES_METHOD NADI_LAT NADI_LON NADI_CAT NADI_WIND NADI_PRES WELLINGTON_LAT WELLINGTON_LON WELLINGTON_WIND WELLINGTON_PRES DS824_LAT DS824_LON DS824_STAGE DS824_WIND DS824_PRES TD9636_LAT TD9636_LON TD9636_STAGE TD9636_WIND TD9636_PRES TD9635_LAT TD9635_LON TD9635_WIND TD9635_PRES TD9635_ROCI NEUMANN_LAT NEUMANN_LON NEUMANN_CLASS NEUMANN_WIND NEUMANN_PRES MLC_LAT MLC_LON MLC_CLASS MLC_WIND MLC_PRES USA_GUST BOM_GUST BOM_GUST_PER REUNION_GUST REUNION_GUST_PER USA_SEAHGT USA_SEARAD_NE USA_SEARAD_SE USA_SEARAD_SW USA_SEARAD_NW STORM_SPEED STORM_DIR
1907018S13147 1907 4 SP EA NOT_NAMED 1907-01-17 23:00:00 NR -13.0000 146.500 994 bom main 254 239 ______O___O___ -1 -13.0000 146.500 994 -13.0000 146.500 7 8 210
1907018S13147 1907 4 SP EA NOT_NAMED 1907-01-18 00:00:00 TS -13.1083 146.430 main 239 205 ______P__OP___ -1 -13.1180 146.446 -13.1000 146.400 TC 40 994 -13.1028 146.429 7 8 209
1907018S13147 1907 4 SP EA NOT_NAMED 1907-01-18 03:00:00 TS -13.4388 146.247 main 199 165 ______P__PP___ -1 -13.4683 146.285 -13.4376 146.235 TC -13.4101 146.218 7 7 208
1907018S13147 1907 4 SP EA NOT_NAMED 1907-01-18 06:00:00 TS -13.7610 146.066 main 156 117 ______P__PP___ -1 -13.8056 146.119 -13.7656 146.067 TC -13.7131 146.013 7 7 209
1907018S13147 1907 4 SP EA NOT_NAMED 1907-01-18 09:00:00 TS -14.0677 145.887 main 117 101 ______P__PP___ -1 -14.1200 145.947 -14.0745 145.895 TC -14.0086 145.820 7 7 210
1907018S13147 1907 4 SP EA NOT_NAMED 1907-01-18 11:00:00 TS -14.2591 145.768 main 93 86 ______P__PO___ -1 -14.3122 145.829 -14.2652 145.776 TC -14.2000 145.700 7 7 211
1907018S13147 1907 4 SP EA NOT_NAMED 1907-01-18 12:00:00 TS -14.3501 145.709 main 77 46 ______P__PP___ -1 -14.4020 145.768 -14.3549 145.716 TC -14.2936 145.643 7 6 214
1907018S13147 1907 4 SP EA NOT_NAMED 1907-01-18 15:00:00 TS -14.5989 145.529 main 46 24 ______P__PP___ -1 -14.6417 145.577 -14.5971 145.529 TC -14.5578 145.481 7 6 218
1907018S13147 1907 4 SP EA NOT_NAMED 1907-01-18 18:00:00 TS -14.8005 145.341 main 15 0 ______P__PP___ -1 -14.8293 145.374 -14.7917 145.332 TC -14.7805 145.317 7 5 228
1907018S13147 1907 4 SP EA NOT_NAMED 1907-01-18 21:00:00 TS -14.9414 145.138 main 0 0 ______P__PP___ -1 -14.9552 145.155 -14.9292 145.123 TC -14.9398 145.137 7 5 240
1907018S13147 1907 4 SP EA NOT_NAMED 1907-01-18 23:00:00 TS -14.9948 144.992 993 bom main 0 0 ______O__PO___ -1 -15.0000 145.000 993 -14.9844 144.976 TC -15.0000 145.000 7 5 253
1907018S13147 1907 4 SP EA NOT_NAMED 1907-01-19 00:00:00 TS -15.0089 144.913 main 0 0 ______P__OP___ -1 -15.0097 144.919 -15.0000 144.900 TC 40 993 -15.0168 144.919 7 5 269
1907018S13147 1907 4 SP EA NOT_NAMED 1907-01-19 03:00:00 TS -14.9997 144.661 main 0 0 ______P__PP___ -1 -14.9919 144.667 -14.9985 144.663 TC -15.0088 144.654 7 5 279
1907018S13147 1907 4 SP EA NOT_NAMED 1907-01-19 06:00:00 TS -14.9261 144.396 main 0 0 ______P__PP___ -1 -14.9141 144.405 -14.9345 144.415 TC -14.9298 144.369 7 6 291
1907018S13147 1907 4 SP EA NOT_NAMED 1907-01-19 09:00:00 TS -14.8044 144.127 main 0 0 ______P__PP___ -1 -14.7900 144.137 -14.8215 144.162 TC -14.8018 144.082 7 6 297
1907018S13147 1907 4 SP EA NOT_NAMED 1907-01-19 11:00:00 TS -14.7046 143.951 main 0 0 ______P__PO___ -1 -14.6883 143.959 -14.7257 143.993 TC -14.7000 143.900 7 6 301
1907018S13147 1907 4 SP EA NOT_NAMED 1907-01-19 12:00:00 TS -14.6518 143.864 main 0 0 ______P__PP___ -1 -14.6332 143.871 -14.6731 143.910 TC -14.6489 143.812 7 6 305
1907018S13147 1907 4 SP EA NOT_NAMED 1907-01-19 15:00:00 TS -14.4772 143.610 main 0 0 ______P__PP___ -1 -14.4575 143.612 -14.5031 143.662 TC -14.4711 143.557 7 6 307
1907018S13147 1907 4 SP EA NOT_NAMED 1907-01-19 18:00:00 TS -14.2933 143.371 main 0 0 ______P__PP___ -1 -14.2764 143.366 -14.3251 143.425 TC -14.2783 143.322 7 6 309
1907018S13147 1907 4 SP EA NOT_NAMED 1907-01-19 21:00:00 TS -14.1184 143.152 main 0 0 ______P__PP___ -1 -14.1037 143.139 -14.1528 143.202 TC -14.0986 143.116 7 5 309
1907018S13147 1907 4 SP EA NOT_NAMED 1907-01-19 23:00:00 TS -14.0160 143.022 993 bom main 0 0 ______O__PO___ -1 -14.0000 143.000 993 -14.0479 143.065 TC -14.0000 143.000 7 5 309
1907018S13147 1907 4 SP EA NOT_NAMED 1907-01-20 00:00:00 TS -13.9742 142.963 main 0 0 ______P__OP___ -1 -13.9547 142.937 -14.0000 143.000 TC 40 993 -13.9677 142.952 7 4 306
1907018S13147 1907 4 SP EA NOT_NAMED 1907-01-20 03:00:00 TS -13.8642 142.809 main 0 0 ______P__PP___ -1 -13.8196 142.763 -13.8740 142.826 TC -13.8991 142.838 7 3 306
1907018S13147 1907 4 SP EA NOT_NAMED 1907-01-20 06:00:00 TS -13.7682 142.676 main 0 0 ______P__PP___ -1 -13.6917 142.608 -13.7549 142.669 TC -13.8580 142.750 7 3 306
1907018S13147 1907 4 SP EA NOT_NAMED 1907-01-20 09:00:00 TS -13.6851 142.555 main 0 0 ______P__PP___ -1 -13.5793 142.471 -13.6501 142.529 TC -13.8258 142.665 7 3 304
1907018S13147 1907 4 SP EA NOT_NAMED 1907-01-20 11:00:00 TS -13.6363 142.477 main 0 0 ______P__PO___ -1 -13.5170 142.387 -13.5919 142.443 TC -13.8000 142.600 7 3 303
1907018S13147 1907 4 SP EA NOT_NAMED 1907-01-20 12:00:00 TS -13.6075 142.435 main 0 0 ______P__PP___ -1 -13.4906 142.348 -13.5671 142.402 TC -13.7648 142.554 7 3 303
1907018S13147 1907 4 SP EA NOT_NAMED 1907-01-20 15:00:00 TS -13.5317 142.311 main 0 0 ______P__PP___ -1 -13.4337 142.239 -13.5131 142.288 TC -13.6482 142.405 7 3 297
1907018S13147 1907 4 SP EA NOT_NAMED 1907-01-20 18:00:00 TS -13.4855 142.191 main 0 0 ______P__PP___ -1 -13.4169 142.142 -13.4957 142.185 TC -13.5440 142.247 7 2 281
1907018S13147 1907 4 SP EA NOT_NAMED 1907-01-20 21:00:00 TS -13.4868 142.079 main 0 0 ______P__PP___ -1 -13.4483 142.054 -13.5222 142.089 TC -13.4898 142.094 7 2 258
1907018S13147 1907 4 SP EA NOT_NAMED 1907-01-20 23:00:00 TS -13.5226 142.010 993 bom main 0 0 ______O__PO___ -1 -13.5000 142.000 993 -13.5679 142.029 TC -13.5000 142.000 7 2 234
1907018S13147 1907 4 SP EA NOT_NAMED 1907-01-21 00:00:00 TS -13.5561 141.977 main 0 0 ______P__OP___ -1 -13.5446 141.974 -13.6000 142.000 TC 40 993 -13.5236 141.956 7 3 213
1907018S13147 1907 4 SP EA NOT_NAMED 1907-01-21 03:00:00 TS -13.7112 141.886 main 0 0 ______P__PP___ -1 -13.7197 141.907 -13.7615 141.918 TC -13.6526 141.835 7 4 204
1907018S13147 1907 4 SP EA NOT_NAMED 1907-01-21 06:00:00 TS -13.9262 141.808 main 0 0 ______P__PP___ -1 -13.9471 141.849 -13.9775 141.846 TC -13.8541 141.730 7 5 197
1907018S13147 1907 4 SP EA NOT_NAMED 1907-01-21 09:00:00 TS -14.1862 141.741 main 0 0 ______P__PP___ -1 -14.2138 141.798 -14.2354 141.779 TC -14.1093 141.644 7 6 193
1907018S13147 1907 4 SP EA NOT_NAMED 1907-01-21 11:00:00 TS -14.3771 141.700 main 0 0 ______P__PO___ -1 -14.4071 141.765 -14.4242 141.737 TC -14.3000 141.600 7 6 192
1907018S13147 1907 4 SP EA NOT_NAMED 1907-01-21 12:00:00 TS -14.4760 141.684 main 0 0 ______P__PP___ -1 -14.5070 141.748 -14.5222 141.715 TC -14.3989 141.588 7 6 188
1907018S13147 1907 4 SP EA NOT_NAMED 1907-01-21 15:00:00 TS -14.7883 141.638 main 10 10 ______P__PP___ -1 -14.8138 141.695 -14.8249 141.649 TC -14.7263 141.570 7 6 188
1907018S13147 1907 4 SP EA NOT_NAMED 1907-01-21 18:00:00 TS -15.1083 141.590 main 10 0 ______P__PP___ -1 -15.1212 141.633 -15.1307 141.577 TC -15.0730 141.561 7 6 190
1907018S13147 1907 4 SP EA NOT_NAMED 1907-01-21 21:00:00 TS -15.4158 141.530 main 10 0 ______P__PP___ -1 -15.4164 141.559 -15.4267 141.495 TC -15.4044 141.537 7 6 193
1907018S13147 1907 4 SP EA NOT_NAMED 1907-01-21 23:00:00 TS -15.6041 141.478 998 bom main 0 0 ______O__PO___ -1 -15.6000 141.500 998 -15.6122 141.433 TC -15.6000 141.500 7 6 197
1907018S13147 1907 4 SP EA NOT_NAMED 1907-01-22 00:00:00 TS -15.6839 141.444 main 10 10 ______P__OP___ -1 -15.6733 141.466 -15.7000 141.400 TC 35 998 -15.6785 141.467 7 5 207
1907018S13147 1907 4 SP EA NOT_NAMED 1907-01-22 03:00:00 TS -15.8893 141.327 main 10 10 ______P__PP___ -1 -15.8837 141.356 -15.9034 141.287 TC -15.8808 141.340 7 5 212
1907018S13147 1907 4 SP EA NOT_NAMED 1907-01-22 06:00:00 TS -16.0730 141.193 main 21 21 ______P__PP___ -1 -16.0806 141.232 -16.0905 141.163 TC -16.0481 141.183 7 4 218
1907018S13147 1907 4 SP EA NOT_NAMED 1907-01-22 09:00:00 TS -16.2426 141.045 main 39 33 ______P__PP___ -1 -16.2653 141.095 -16.2634 141.028 TC -16.1991 141.013 7 4 221
1907018S13147 1907 4 SP EA NOT_NAMED 1907-01-22 11:00:00 TS -16.3514 140.943 main 42 42 ______P__PO___ -1 -16.3822 140.997 -16.3721 140.932 TC -16.3000 140.900 7 4 222
1907018S13147 1907 4 SP EA NOT_NAMED 1907-01-22 12:00:00 TS -16.4085 140.894 main 42 39 ______P__PP___ -1 -16.4389 140.946 -16.4247 140.882 TC -16.3620 140.852 7 4 221
1907018S13147 1907 4 SP EA NOT_NAMED 1907-01-22 15:00:00 TS -16.5763 140.741 main 54 46 ______P__PP___ -1 -16.6026 140.785 -16.5766 140.726 TC -16.5495 140.711 7 4 223
1907018S13147 1907 4 SP EA NOT_NAMED 1907-01-22 18:00:00 TS -16.7371 140.579 main 54 48 ______P__PP___ -1 -16.7577 140.612 -16.7216 140.560 TC -16.7321 140.566 7 4 226
1907018S13147 1907 4 SP EA NOT_NAMED 1907-01-22 21:00:00 TS -16.8892 140.408 main 64 64 ______P__PP___ -1 -16.9052 140.429 -16.8619 140.384 TC -16.9004 140.411 7 4 228
1907018S13147 1907 4 SP EA NOT_NAMED 1907-01-22 23:00:00 TS -16.9847 140.287 994 bom main 74 74 ______O__PO___ -1 -17.0000 140.300 994 -16.9541 140.262 TC -17.0000 140.300 7 4 231
1907018S13147 1907 4 SP EA NOT_NAMED 1907-01-23 00:00:00 TS -17.0286 140.225 main 78 59 ______P__OP___ -1 -17.0449 140.231 -17.0000 140.200 TC 40 994 -17.0409 140.242 7 5 237
1907018S13147 1907 4 SP EA NOT_NAMED 1907-01-23 03:00:00 TS -17.1511 140.023 main 49 30 ______P__PP___ -1 -17.1715 140.013 -17.1355 139.997 TC -17.1461 140.060 7 5 239
1907018S13147 1907 4 SP EA NOT_NAMED 1907-01-23 06:00:00 TS -17.2640 139.809 main 30 10 ______P__PP___ -1 -17.2895 139.782 -17.2654 139.782 TC -17.2371 139.862 7 5 242
1907018S13147 1907 4 SP EA NOT_NAMED 1907-01-23 09:00:00 TS -17.3752 139.585 main 10 0 ______P__PP___ -1 -17.4030 139.544 -17.3928 139.560 TC -17.3297 139.650 7 5 243
1907018S13147 1907 4 SP EA NOT_NAMED 1907-01-23 11:00:00 TS -17.4520 139.431 main 0 0 ______P__PO___ -1 -17.4783 139.384 -17.4778 139.410 TC -17.4000 139.500 7 5 242
1907018S13147 1907 4 SP EA NOT_NAMED 1907-01-23 12:00:00 TS -17.4926 139.353 main 0 0 ______P__PP___ -1 -17.5164 139.305 -17.5207 139.335 TC -17.4409 139.418 7 5 241
1907018S13147 1907 4 SP EA NOT_NAMED 1907-01-23 15:00:00 TS -17.6198 139.114 main 0 0 ______P__PP___ -1 -17.6338 139.069 -17.6522 139.111 TC -17.5735 139.161 7 5 240
1907018S13147 1907 4 SP EA NOT_NAMED 1907-01-23 18:00:00 TS -17.7571 138.878 main 0 0 ______P__PP___ -1 -17.7597 138.842 -17.7905 138.895 TC -17.7210 138.898 7 5 237
1907018S13147 1907 4 SP EA NOT_NAMED 1907-01-23 21:00:00 TS -17.9068 138.656 main 0 0 ______P__PP___ -1 -17.8983 138.630 -17.9387 138.689 TC -17.8834 138.649 7 5 233
1907018S13147 1907 4 SP EA NOT_NAMED 1907-01-23 23:00:00 TS -18.0149 138.520 996 bom main 0 0 ______O__PO___ -1 -18.0000 138.500 996 -18.0446 138.561 TC -18.0000 138.500 7 5 229
1907018S13147 1907 4 SP EA NOT_NAMED 1907-01-24 00:00:00 TS -18.0701 138.456 main 0 0 ______P__OP___ -1 -18.0517 138.435 -18.1000 138.500 TC 35 996 -18.0587 138.434 7 5 226
1907018S13147 1907 4 SP EA NOT_NAMED 1907-01-24 03:00:00 TS -18.2397 138.273 main 0 0 ______P__PP___ -1 -18.2143 138.249 -18.2596 138.312 TC -18.2453 138.257 7 5 224
1907018S13147 1907 4 SP EA NOT_NAMED 1907-01-24 06:00:00 TS -18.4213 138.107 main 0 0 ______P__PP___ -1 -18.3898 138.077 -18.4289 138.135 TC -18.4453 138.107 7 5 218
1907018S13147 1907 4 SP EA NOT_NAMED 1907-01-24 09:00:00 TS -18.6153 137.958 main 0 0 ______P__PP___ -1 -18.5795 137.921 -18.6106 137.973 TC -18.6556 137.978 7 5 215
1907018S13147 1907 4 SP EA NOT_NAMED 1907-01-24 11:00:00 TS -18.7516 137.868 main 0 0 ______P__PO___ -1 -18.7148 137.829 -18.7400 137.875 TC -18.8000 137.900 7 5 211
1907018S13147 1907 4 SP EA NOT_NAMED 1907-01-24 12:00:00 TS -18.8185 137.824 main 0 0 ______P__PP___ -1 -18.7852 137.786 -18.8074 137.829 TC -18.8630 137.856 7 5 209
1907018S13147 1907 4 SP EA NOT_NAMED 1907-01-24 15:00:00 TS -19.0281 137.704 main 0 0 ______P__PP___ -1 -19.0082 137.673 -19.0220 137.706 TC -19.0541 137.734 7 5 205
1907018S13147 1907 4 SP EA NOT_NAMED 1907-01-24 18:00:00 TS -19.2567 137.607 main 0 0 ______P__PP___ -1 -19.2502 137.584 -19.2571 137.608 TC -19.2626 137.629 7 5 198
1907018S13147 1907 4 SP EA NOT_NAMED 1907-01-24 21:00:00 TS -19.5119 137.535 main 0 0 ______P__PP___ -1 -19.5128 137.524 -19.5155 137.538 TC -19.5074 137.544 7 5 192
1907018S13147 1907 4 SP EA NOT_NAMED 1907-01-24 23:00:00 TS -19.7007 137.503 1000 bom main 0 0 ______O__PO___ -1 -19.7000 137.500 1000 -19.7021 137.509 TC -19.7000 137.500 7 6 189
1907018S13147 1907 4 SP EA NOT_NAMED 1907-01-25 00:00:00 TS -19.7966 137.486 main 0 0 ______P__OP___ -1 -19.7751 137.485 -19.8000 137.500 TC 30 1000 -19.8148 137.473 7 6 185
1907018S13147 1907 4 SP EA NOT_NAMED 1907-01-25 03:00:00 TS -20.1063 137.454 main 0 0 ______P__PP___ -1 -20.0071 137.461 -20.1122 137.496 TC -20.1997 137.405 7 7 184
1907018S13147 1907 4 SP EA NOT_NAMED 1907-01-25 06:00:00 TS -20.4418 137.451 main 0 0 ______P__PP___ -1 -20.2570 137.465 -20.4495 137.523 TC -20.6188 137.367 7 7 179
1907018S13147 1907 4 SP EA NOT_NAMED 1907-01-25 09:00:00 TS -20.7937 137.481 main 0 0 ______P__PP___ -1 -20.5349 137.496 -20.8085 137.577 TC -21.0377 137.369 7 7 174
1907018S13147 1907 4 SP EA NOT_NAMED 1907-01-25 11:00:00 TS -21.0329 137.519 main 0 0 ______P__PO___ -1 -20.7407 137.532 -21.0580 137.626 TC -21.3000 137.400 7 7 170
1907018S13147 1907 4 SP EA NOT_NAMED 1907-01-25 12:00:00 TS -21.1421 137.542 main 0 0 ______P__PP___ -1 -20.8509 137.555 -21.1854 137.654 TC -21.3900 137.418 7 7 167
1907018S13147 1907 4 SP EA NOT_NAMED 1907-01-25 15:00:00 TS -21.4734 137.633 main 0 0 ______P__PP___ -1 -21.2152 137.641 -21.5767 137.749 TC -21.6283 137.508 7 7 164
1907018S13147 1907 4 SP EA NOT_NAMED 1907-01-25 18:00:00 TS -21.8305 137.754 main 0 0 ______P__PP___ -1 -21.6379 137.754 -21.9786 137.858 TC -21.8749 137.650 7 8 162
1907018S13147 1907 4 SP EA NOT_NAMED 1907-01-25 21:00:00 TS -22.2261 137.897 main 0 0 ______P__PP___ -1 -22.1292 137.893 -22.3876 137.976 TC -22.2019 137.843 7 9 161
1907018S13147 1907 4 SP EA NOT_NAMED 1907-01-25 23:00:00 TS -22.5325 138.012 1002 bom main 0 0 ______O__PO___ -1 -22.5000 138.000 1002 -22.6624 138.058 TC -22.5000 138.000 7 10 161
1907018S13147 1907 4 SP EA NOT_NAMED 1907-01-26 00:00:00 TS -22.7069 138.078 main 0 0 ______P__OP___ -1 -22.6994 138.058 -22.8000 138.100 TC 25 1002 -22.6912 138.092 7 13 160
1907018S13147 1907 4 SP EA NOT_NAMED 1907-01-26 03:00:00 NR -23.3593 138.329 main 0 0 ______P___P___ -1 -23.3508 138.249 TC -23.3678 138.408 7 15 161
1907018S13147 1907 4 SP EA NOT_NAMED 1907-01-26 06:00:00 NR -24.1170 138.611 main 0 0 ______P___P___ -1 -24.0740 138.464 TC -24.1599 138.757 7 17 162
1907018S13147 1907 4 SP EA NOT_NAMED 1907-01-26 09:00:00 NR -24.9376 138.899 main 0 0 ______P___P___ -1 -24.8582 138.700 TC -25.0170 139.098 7 18 163
1907018S13147 1907 4 SP EA NOT_NAMED 1907-01-26 11:00:00 NR -25.5048 139.084 main 0 0 ______P___O___ -1 -25.4095 138.867 TC -25.6000 139.300 7 18 164
1907018S13147 1907 4 SP EA NOT_NAMED 1907-01-26 12:00:00 NR -25.7912 139.171 main 0 0 ______P___P___ -1 -25.6925 138.954 TC -25.8899 139.389 7 18 165
1907018S13147 1907 4 SP EA NOT_NAMED 1907-01-26 15:00:00 NR -26.6577 139.417 main 0 0 ______P___P___ -1 -26.5658 139.224 TC -26.7497 139.611 7 18 166
1907018S13147 1907 4 SP EA NOT_NAMED 1907-01-26 18:00:00 NR -27.5327 139.644 main 0 0 ______P___P___ -1 -27.4669 139.507 TC -27.5985 139.780 7 18 167
1907018S13147 1907 4 SP EA NOT_NAMED 1907-01-26 21:00:00 NR -28.4125 139.859 main 0 0 ______P___P___ -1 -28.3846 139.800 TC -28.4405 139.917 7 18 168
1907018S13147 1907 4 SP EA NOT_NAMED 1907-01-26 23:00:00 NR -29.0000 140.000 1004 bom main 0 ______O___O___ -1 -29.0000 140.000 1004 TC -29.0000 140.000 7 18 168

Digital Typhoon Data and Search

About IBTrACS Database

This database is a web-friendly format of International Best Track Archive for Climate Stewardship (IBTrACS), a global best track data archive curated by NOAA dating back to 1842.

Updated: 2021-11-26